Weather History for Opelousas St Landry Parish Ai, LA

Change the Weather History Date:

Saturday, May 3, 2014

  Actual Average (KLFT) Record (KLFT)
Temperature  
Mean Temperature 66 °F 74 °F  
Max Temperature 83 °F 84 °F 94 °F (1943)
Min Temperature 50 °F 64 °F 42 °F (1929)
Cooling Degree Days 2 9  
Month to date cooling degree days 25  
Year to date cooling degree days 279  
Growing Degree Days 16 (Base 50)    
Moisture  
Dew Point 53 °F    
Average Humidity 64    
Maximum Humidity 100    
Minimum Humidity 27    
Precipitation  
Precipitation 0.00 in 0.14 in 2.89 in (1922)
Month to date precipitation 0.42  
Year to date precipitation 18.26  
Sea Level Pressure  
Sea Level Pressure 30.05 in    
Wind  
Wind Speed 4 mph (SW)    
Max Wind Speed 15 mph    
Max Gust Speed 22 mph    
Visibility 10 miles    
Events      
T = Trace of Precipitation, MM = Missing Value Source: NWS Daily Summary

Daily Weather History Graph

Daily Weather History Graph

Search for Another Location

Airport:

Trip Planner

Search our weather history database for the weather conditions in past years. The results will help you decide how hot, cold, wet, or windy it might be!

Date:

Astronomy

May. 03, 2014 Rise Set
Actual Time 6:22 AM CDT 7:48 PM CDT
Civil Twilight 5:57 AM CDT 8:13 PM CDT
Nautical Twilight 5:26 AM CDT 8:44 PM CDT
Astronomical Twilight 4:54 AM CDT 9:16 PM CDT
Moon 9:56 AM CDT (5/3) 11:52 PM CDT (5/3)
Length of Visible Light 14h 16m
Length of Day
13h 25m
Waxing Crescent, 20% of the Moon is Illuminated
May 3
Waxing Crescent
May 6
First Quarter
May 14
Full
May 21
Last Quarter
May 28
New

Hourly Weather History & Observations

Time (CDT) Temp. Dew Point Humidity Pressure Visibility Wind Dir Wind Speed Gust Speed Precip Events Conditions
12:15 AM 54.1 °F 48.4 °F 81% 30.02 in 10.0 mi Calm Calm - N/A   Unknown
12:35 AM 54.1 °F 48.2 °F 80% 30.02 in 10.0 mi Calm Calm - N/A   Unknown
12:55 AM 52.9 °F 47.5 °F 82% 30.02 in 10.0 mi Calm Calm - N/A   Unknown
1:15 AM 56.3 °F 45.5 °F 67% 30.02 in 10.0 mi South 3.5 mph - N/A   Unknown
1:35 AM 56.7 °F 46.0 °F 68% 30.02 in 10.0 mi Calm Calm - N/A   Unknown
1:55 AM 54.5 °F 46.8 °F 75% 30.02 in 10.0 mi Calm Calm - N/A   Unknown
2:15 AM 53.1 °F 46.6 °F 79% 30.02 in 10.0 mi Calm Calm - N/A   Unknown
2:35 AM 53.4 °F 46.4 °F 77% 30.02 in 10.0 mi Calm Calm - N/A   Unknown
2:55 AM 54.5 °F 48.4 °F 80% 30.02 in 10.0 mi Calm Calm - N/A   Unknown
3:15 AM 55.4 °F 49.8 °F 81% 30.02 in 10.0 mi Calm Calm - N/A   Unknown
3:35 AM 53.6 °F 49.3 °F 85% 30.03 in 10.0 mi Calm Calm - N/A   Unknown
3:55 AM 52.3 °F 49.5 °F 90% 30.03 in 10.0 mi Calm Calm - N/A   Unknown
4:15 AM 51.1 °F 48.9 °F 92% 30.03 in 10.0 mi Calm Calm - N/A   Unknown
4:35 AM 50.5 °F 49.1 °F 95% 30.03 in 10.0 mi Calm Calm - N/A   Unknown
4:55 AM 50.7 °F 49.8 °F 97% 30.03 in 10.0 mi Calm Calm - N/A   Unknown
5:15 AM 51.3 °F 50.7 °F 98% 30.03 in 10.0 mi Calm Calm - N/A   Unknown
5:35 AM 51.6 °F 50.7 °F 97% 30.03 in 10.0 mi Calm Calm - N/A   Unknown
5:55 AM 50.7 °F 50.5 °F 99% 30.04 in 7.0 mi Calm Calm - N/A   Unknown
6:15 AM 50.5 °F 50.4 °F 99% 30.04 in 7.0 mi Calm Calm - N/A   Unknown
6:35 AM 50.9 °F 50.9 °F 100% 30.05 in 4.0 mi Calm Calm - N/A   Mist
6:55 AM 50.9 °F 50.9 °F 100% 30.06 in 10.0 mi Calm Calm - N/A   Unknown
7:15 AM 53.6 °F 53.2 °F 99% 30.06 in 10.0 mi SSW 3.5 mph - N/A   Unknown
7:35 AM 58.6 °F 57.0 °F 94% 30.07 in 10.0 mi Calm Calm - N/A   Unknown
7:55 AM 61.5 °F 58.5 °F 90% 30.07 in 7.0 mi Calm Calm - N/A   Unknown
8:15 AM 63.7 °F 59.2 °F 85% 30.08 in 10.0 mi SW 5.8 mph - N/A   Unknown
8:35 AM 66.2 °F 59.9 °F 80% 30.08 in 10.0 mi WSW 4.6 mph - N/A   Unknown
8:55 AM 68.5 °F 58.3 °F 70% 30.08 in 10.0 mi WSW 5.8 mph - N/A   Unknown
9:15 AM 70.2 °F 56.3 °F 61% 30.09 in 10.0 mi WSW 11.5 mph - N/A   Unknown
9:35 AM 72.1 °F 53.8 °F 52% 30.09 in 10.0 mi WSW 11.5 mph - N/A   Unknown
9:55 AM 73.6 °F 52.3 °F 47% 30.09 in 10.0 mi West 12.7 mph - N/A   Unknown
10:15 AM 75.0 °F 50.4 °F 42% 30.09 in 10.0 mi West 10.4 mph - N/A   Unknown
10:35 AM 75.6 °F 48.6 °F 38% 30.09 in 10.0 mi WSW 15.0 mph 21.9 mph N/A   Unknown
11:15 AM 77.2 °F 47.8 °F 35% 30.09 in 10.0 mi West 12.7 mph - N/A   Unknown
11:35 AM 77.5 °F 49.3 °F 37% 30.09 in 10.0 mi West 13.8 mph 17.3 mph N/A   Unknown
11:55 AM 78.4 °F 50.0 °F 37% 30.08 in 10.0 mi WSW 10.4 mph 19.6 mph N/A   Unknown
12:15 PM 79.3 °F 49.1 °F 35% 30.08 in 10.0 mi WSW 12.7 mph 19.6 mph N/A   Unknown
12:35 PM 79.7 °F 50.2 °F 36% 30.07 in 10.0 mi West 10.4 mph 18.4 mph N/A   Unknown
12:55 PM 80.2 °F 49.6 °F 34% 30.07 in 10.0 mi WSW 10.4 mph - N/A   Unknown
1:15 PM 80.4 °F 49.8 °F 34% 30.07 in 10.0 mi West 10.4 mph 19.6 mph N/A   Unknown
1:35 PM 81.1 °F 49.8 °F 33% 30.06 in 10.0 mi WSW 9.2 mph - N/A   Unknown
1:55 PM 81.3 °F 49.1 °F 32% 30.06 in 10.0 mi West 9.2 mph 16.1 mph N/A   Unknown
2:15 PM 82.0 °F 49.8 °F 32% 30.06 in 10.0 mi WSW 11.5 mph - N/A   Unknown
2:35 PM 81.5 °F 49.1 °F 32% 30.05 in 10.0 mi SW 10.4 mph - N/A   Unknown
2:55 PM 82.9 °F 48.7 °F 30% 30.05 in 10.0 mi West 12.7 mph 17.3 mph N/A   Unknown
3:15 PM 82.8 °F 47.1 °F 29% 30.04 in 10.0 mi West 10.4 mph 19.6 mph N/A   Unknown
3:35 PM 82.8 °F 47.7 °F 29% 30.03 in 10.0 mi West 12.7 mph 19.6 mph N/A   Unknown
3:55 PM 83.7 °F 48.4 °F 29% 30.03 in 10.0 mi WNW 8.1 mph - N/A   Unknown
4:15 PM 83.5 °F 46.6 °F 27% 30.02 in 10.0 mi West 8.1 mph - N/A   Unknown
4:35 PM 83.1 °F 45.9 °F 27% 30.02 in 10.0 mi WSW 3.5 mph - N/A   Unknown
4:55 PM 82.9 °F 47.7 °F 29% 30.02 in 10.0 mi West 6.9 mph - N/A   Unknown
5:15 PM 82.8 °F 47.5 °F 29% 30.02 in 10.0 mi SW 5.8 mph - N/A   Unknown
5:35 PM 83.1 °F 47.3 °F 29% 30.02 in 10.0 mi WSW 9.2 mph - N/A   Unknown
5:55 PM 82.4 °F 47.8 °F 30% 30.02 in 10.0 mi WSW 8.1 mph - N/A   Unknown
6:15 PM 81.9 °F 48.4 °F 31% 30.02 in 10.0 mi WSW 10.4 mph 16.1 mph N/A   Unknown
6:35 PM 79.0 °F 59.7 °F 52% 30.02 in 10.0 mi SSW 11.5 mph - N/A   Unknown
6:55 PM 77.9 °F 60.6 °F 55% 30.03 in 10.0 mi SSW 6.9 mph 16.1 mph N/A   Unknown
7:15 PM 76.8 °F 60.3 °F 56% 30.03 in 10.0 mi SSW 8.1 mph - N/A   Unknown
7:35 PM 75.2 °F 60.4 °F 60% 30.04 in 10.0 mi SSW 8.1 mph - N/A   Unknown
7:55 PM 73.6 °F 61.0 °F 65% 30.04 in 10.0 mi SSW 5.8 mph - N/A   Unknown
8:15 PM 71.1 °F 61.2 °F 71% 30.05 in 10.0 mi South 4.6 mph - N/A   Unknown
8:35 PM 71.1 °F 61.7 °F 72% 30.06 in 10.0 mi SSW 4.6 mph - N/A   Unknown
8:55 PM 69.1 °F 61.5 °F 77% 30.06 in 10.0 mi Calm Calm - N/A   Unknown
9:15 PM 68.2 °F 61.2 °F 78% 30.07 in 10.0 mi South 3.5 mph - N/A   Unknown
9:35 PM 67.6 °F 61.0 °F 79% 30.08 in 10.0 mi South 3.5 mph - N/A   Unknown
9:55 PM 66.6 °F 60.8 °F 82% 30.09 in 10.0 mi South 4.6 mph - N/A   Unknown
10:15 PM 65.5 °F 60.4 °F 84% 30.09 in 10.0 mi SSW 4.6 mph - N/A   Unknown
10:35 PM 64.6 °F 60.3 °F 86% 30.09 in 10.0 mi SSW 4.6 mph - N/A   Unknown
10:55 PM 64.6 °F 60.8 °F 88% 30.10 in 10.0 mi SSW 5.8 mph - N/A   Unknown
11:15 PM 64.4 °F 60.4 °F 87% 30.10 in 10.0 mi SSW 4.6 mph - N/A   Unknown
11:35 PM 63.9 °F 59.9 °F 87% 30.11 in 10.0 mi SSW 4.6 mph - N/A   Unknown
11:55 PM 63.9 °F 59.7 °F 86% 30.11 in 10.0 mi SSW 4.6 mph - N/A   Unknown